Aviation Digital Data Service (ADDS)

Output produced by METARs form (0947 UTC 28 September 2021)
found at http://www.aviationweather.gov/metar/data/
 
KRNH 280520Z 2806/2906 VRB03KT P6SM SKC 
     FM281400 16006KT P6SM SKC 
     FM281800 16009KT P6SM SKC 
     FM290000 14006KT P6SM FEW250